sensor_id;sensor_type;location;lat;lon;timestamp;pressure;altitude;pressure_sealevel;temperature;humidity
69318;BME280;56457;52.190;4.440;2022-08-01T00:00:46;101762.22;;;20.18;92.03
69318;BME280;56457;52.190;4.440;2022-08-01T00:01:47;101765.00;;;20.15;91.87
69318;BME280;56457;52.190;4.440;2022-08-01T00:02:47;101767.63;;;20.16;92.00
69318;BME280;56457;52.190;4.440;2022-08-01T00:03:47;101764.88;;;20.18;91.65
69318;BME280;56457;52.190;4.440;2022-08-01T00:04:48;101763.16;;;20.17;91.65
69318;BME280;56457;52.190;4.440;2022-08-01T00:05:48;101775.75;;;20.12;91.48
69318;BME280;56457;52.190;4.440;2022-08-01T00:06:49;101771.41;;;20.09;91.61
69318;BME280;56457;52.190;4.440;2022-08-01T00:07:49;101774.84;;;20.13;91.67
69318;BME280;56457;52.190;4.440;2022-08-01T00:08:50;101776.13;;;20.01;91.71
69318;BME280;56457;52.190;4.440;2022-08-01T00:09:50;101771.75;;;19.99;92.14
69318;BME280;56457;52.190;4.440;2022-08-01T00:10:50;101776.59;;;19.86;92.45
69318;BME280;56457;52.190;4.440;2022-08-01T00:11:51;101771.91;;;19.94;92.99
69318;BME280;56457;52.190;4.440;2022-08-01T00:12:51;101776.06;;;20.03;92.94
69318;BME280;56457;52.190;4.440;2022-08-01T00:13:51;101780.66;;;19.98;92.70
69318;BME280;56457;52.190;4.440;2022-08-01T00:14:52;101773.69;;;19.94;93.25
69318;BME280;56457;52.190;4.440;2022-08-01T00:15:52;101773.91;;;19.87;93.54
69318;BME280;56457;52.190;4.440;2022-08-01T00:16:52;101781.16;;;19.82;93.62
69318;BME280;56457;52.190;4.440;2022-08-01T00:17:53;101772.25;;;19.83;94.17
69318;BME280;56457;52.190;4.440;2022-08-01T00:18:53;101784.03;;;19.75;94.54
69318;BME280;56457;52.190;4.440;2022-08-01T00:19:54;101785.94;;;19.71;94.98
69318;BME280;56457;52.190;4.440;2022-08-01T00:20:54;101786.69;;;19.75;95.12
69318;BME280;56457;52.190;4.440;2022-08-01T00:21:54;101785.88;;;19.73;95.98
69318;BME280;56457;52.190;4.440;2022-08-01T00:22:55;101785.03;;;19.72;95.45
69318;BME280;56457;52.190;4.440;2022-08-01T00:23:55;101792.22;;;19.69;95.37
69318;BME280;56457;52.190;4.440;2022-08-01T00:24:55;101783.84;;;19.81;95.37
69318;BME280;56457;52.190;4.440;2022-08-01T00:25:56;101790.88;;;19.83;95.21
69318;BME280;56457;52.190;4.440;2022-08-01T00:26:57;101781.84;;;19.89;94.65
69318;BME280;56457;52.190;4.440;2022-08-01T00:27:57;101787.84;;;19.96;94.20
69318;BME280;56457;52.190;4.440;2022-08-01T00:28:57;101787.06;;;19.92;93.79
69318;BME280;56457;52.190;4.440;2022-08-01T00:29:58;101786.84;;;19.98;93.74
69318;BME280;56457;52.190;4.440;2022-08-01T00:30:58;101779.44;;;19.81;93.90
69318;BME280;56457;52.190;4.440;2022-08-01T00:31:58;101784.63;;;19.84;93.54
69318;BME280;56457;52.190;4.440;2022-08-01T00:32:59;101782.03;;;19.83;93.53
69318;BME280;56457;52.190;4.440;2022-08-01T00:33:59;101782.56;;;19.94;93.47
69318;BME280;56457;52.190;4.440;2022-08-01T00:34:59;101783.31;;;19.98;93.11
69318;BME280;56457;52.190;4.440;2022-08-01T00:36:00;101786.69;;;19.75;92.24
69318;BME280;56457;52.190;4.440;2022-08-01T00:37:00;101785.88;;;19.73;92.85
69318;BME280;56457;52.190;4.440;2022-08-01T00:38:01;101784.03;;;19.75;92.53
69318;BME280;56457;52.190;4.440;2022-08-01T00:39:01;101783.56;;;19.90;92.71
69318;BME280;56457;52.190;4.440;2022-08-01T00:40:02;101785.38;;;19.89;92.34
69318;BME280;56457;52.190;4.440;2022-08-01T00:41:02;101786.19;;;19.92;91.83
69318;BME280;56457;52.190;4.440;2022-08-01T00:42:07;101784.50;;;19.89;92.71
69318;BME280;56457;52.190;4.440;2022-08-01T00:43:08;101784.75;;;19.81;92.51
69318;BME280;56457;52.190;4.440;2022-08-01T00:44:09;101787.41;;;19.81;92.26
69318;BME280;56457;52.190;4.440;2022-08-01T00:45:10;101781.84;;;19.89;92.36
69318;BME280;56457;52.190;4.440;2022-08-01T00:46:11;101780.09;;;19.88;92.06
69318;BME280;56457;52.190;4.440;2022-08-01T00:47:12;101783.22;;;19.73;91.68
69318;BME280;56457;52.190;4.440;2022-08-01T00:48:12;101781.56;;;19.69;92.07
69318;BME280;56457;52.190;4.440;2022-08-01T00:49:12;101781.53;;;19.70;92.13
69318;BME280;56457;52.190;4.440;2022-08-01T00:50:13;101783.22;;;19.73;92.31
69318;BME280;56457;52.190;4.440;2022-08-01T00:51:14;101782.97;;;19.80;92.44
69318;BME280;56457;52.190;4.440;2022-08-01T00:52:15;101777.47;;;19.86;91.94
69318;BME280;56457;52.190;4.440;2022-08-01T00:53:15;101774.81;;;19.86;91.64
69318;BME280;56457;52.190;4.440;2022-08-01T00:54:15;101780.31;;;19.80;91.99
69318;BME280;56457;52.190;4.440;2022-08-01T00:55:18;101792.00;;;19.76;91.67
69318;BME280;56457;52.190;4.440;2022-08-01T00:56:24;101783.16;;;19.76;91.48
69318;BME280;56457;52.190;4.440;2022-08-01T00:57:25;101782.91;;;19.83;91.78
69318;BME280;56457;52.190;4.440;2022-08-01T00:58:26;101790.44;;;19.97;91.41
69318;BME280;56457;52.190;4.440;2022-08-01T00:59:29;101795.28;;;19.84;91.36
69318;BME280;56457;52.190;4.440;2022-08-01T01:00:30;101790.84;;;19.85;91.26
69318;BME280;56457;52.190;4.440;2022-08-01T01:01:30;101789.88;;;19.87;90.87
69318;BME280;56457;52.190;4.440;2022-08-01T01:02:31;101795.97;;;19.91;90.47
69318;BME280;56457;52.190;4.440;2022-08-01T01:03:32;101794.97;;;19.95;90.59
69318;BME280;56457;52.190;4.440;2022-08-01T01:04:32;101785.78;;;20.04;90.17
69318;BME280;56457;52.190;4.440;2022-08-01T01:05:36;101787.66;;;20.02;89.98
69318;BME280;56457;52.190;4.440;2022-08-01T01:07:14;101788.31;;;20.08;89.46
69318;BME280;56457;52.190;4.440;2022-08-01T01:08:22;101787.72;;;19.99;89.13
69318;BME280;56457;52.190;4.440;2022-08-01T01:11:54;101780.97;;;19.88;89.29
69318;BME280;56457;52.190;4.440;2022-08-01T01:13:07;101781.84;;;19.89;89.33
69318;BME280;56457;52.190;4.440;2022-08-01T01:14:16;101788.59;;;19.99;89.35
69318;BME280;56457;52.190;4.440;2022-08-01T01:15:37;101783.19;;;20.02;88.90
69318;BME280;56457;52.190;4.440;2022-08-01T01:16:40;101781.16;;;19.82;89.05
69318;BME280;56457;52.190;4.440;2022-08-01T01:17:55;101782.09;;;19.81;89.71
69318;BME280;56457;52.190;4.440;2022-08-01T01:19:01;101786.75;;;19.73;89.33
69318;BME280;56457;52.190;4.440;2022-08-01T01:20:05;101782.53;;;19.66;89.41
69318;BME280;56457;52.190;4.440;2022-08-01T01:22:36;101774.59;;;19.93;89.36
69318;BME280;56457;52.190;4.440;2022-08-01T01:24:10;101777.94;;;19.99;88.62
69318;BME280;56457;52.190;4.440;2022-08-01T01:26:50;101779.13;;;19.90;88.44
69318;BME280;56457;52.190;4.440;2022-08-01T01:28:27;101781.97;;;19.84;88.46
69318;BME280;56457;52.190;4.440;2022-08-01T01:29:28;101771.28;;;19.86;88.63
69318;BME280;56457;52.190;4.440;2022-08-01T01:30:31;101769.53;;;19.85;88.72
69318;BME280;56457;52.190;4.440;2022-08-01T01:31:40;101773.31;;;19.78;88.83
69318;BME280;56457;52.190;4.440;2022-08-01T01:32:45;101773.69;;;19.94;89.21
69318;BME280;56457;52.190;4.440;2022-08-01T01:33:47;101776.16;;;20.00;89.03
69318;BME280;56457;52.190;4.440;2022-08-01T01:34:50;101774.31;;;20.02;88.46
69318;BME280;56457;52.190;4.440;2022-08-01T01:35:56;101779.59;;;20.03;88.57
69318;BME280;56457;52.190;4.440;2022-08-01T01:36:59;101771.91;;;19.94;88.37
69318;BME280;56457;52.190;4.440;2022-08-01T01:38:12;101776.00;;;20.04;88.55
69318;BME280;56457;52.190;4.440;2022-08-01T01:39:15;101776.00;;;20.04;88.36
69318;BME280;56457;52.190;4.440;2022-08-01T01:40:17;101782.13;;;20.08;88.39
69318;BME280;56457;52.190;4.440;2022-08-01T01:41:20;101776.66;;;20.12;87.94
69318;BME280;56457;52.190;4.440;2022-08-01T01:42:23;101780.59;;;20.01;88.01
69318;BME280;56457;52.190;4.440;2022-08-01T01:43:25;101784.84;;;20.06;88.06
69318;BME280;56457;52.190;4.440;2022-08-01T01:44:27;101782.13;;;20.08;88.10
69318;BME280;56457;52.190;4.440;2022-08-01T01:45:30;101779.31;;;20.12;88.10
69318;BME280;56457;52.190;4.440;2022-08-01T01:46:31;101777.75;;;20.05;88.10
69318;BME280;56457;52.190;4.440;2022-08-01T01:47:33;101786.53;;;20.09;88.48
69318;BME280;56457;52.190;4.440;2022-08-01T01:48:34;101783.31;;;19.98;88.78
69318;BME280;56457;52.190;4.440;2022-08-01T01:49:35;101782.41;;;19.99;88.73
69318;BME280;56457;52.190;4.440;2022-08-01T01:50:37;101781.59;;;19.97;88.81
69318;BME280;56457;52.190;4.440;2022-08-01T01:51:39;101786.72;;;20.03;89.06
69318;BME280;56457;52.190;4.440;2022-08-01T01:52:43;101779.53;;;20.05;88.80
69318;BME280;56457;52.190;4.440;2022-08-01T01:53:44;101786.59;;;20.07;88.86
69318;BME280;56457;52.190;4.440;2022-08-01T01:54:49;101789.28;;;20.06;88.50
69318;BME280;56457;52.190;4.440;2022-08-01T01:55:52;101789.25;;;20.07;88.60
69318;BME280;56457;52.190;4.440;2022-08-01T01:56:56;101782.13;;;20.08;88.90
69318;BME280;56457;52.190;4.440;2022-08-01T01:57:59;101783.94;;;20.06;89.05
69318;BME280;56457;52.190;4.440;2022-08-01T01:59:01;101785.78;;;20.04;89.83
69318;BME280;56457;52.190;4.440;2022-08-01T02:00:03;101788.47;;;20.04;89.76
69318;BME280;56457;52.190;4.440;2022-08-01T02:01:07;101780.22;;;20.11;89.93
69318;BME280;56457;52.190;4.440;2022-08-01T02:02:09;101793.53;;;20.11;89.85
69318;BME280;56457;52.190;4.440;2022-08-01T02:03:12;101778.63;;;20.06;89.94
69318;BME280;56457;52.190;4.440;2022-08-01T02:04:13;101784.13;;;20.01;90.48
69318;BME280;56457;52.190;4.440;2022-08-01T02:05:14;101779.72;;;20.00;90.21
69318;BME280;56457;52.190;4.440;2022-08-01T02:06:15;101781.53;;;19.98;90.76
69318;BME280;56457;52.190;4.440;2022-08-01T02:07:21;101788.41;;;20.05;90.74
69318;BME280;56457;52.190;4.440;2022-08-01T02:08:23;101784.84;;;20.06;90.66
69318;BME280;56457;52.190;4.440;2022-08-01T02:09:26;101787.69;;;20.00;90.62
69318;BME280;56457;52.190;4.440;2022-08-01T02:10:29;101786.72;;;20.03;90.69
69318;BME280;56457;52.190;4.440;2022-08-01T02:11:31;101787.53;;;20.05;90.30
69318;BME280;56457;52.190;4.440;2022-08-01T02:12:34;101783.94;;;20.06;90.47
69318;BME280;56457;52.190;4.440;2022-08-01T02:13:38;101792.84;;;20.05;90.30
69318;BME280;56457;52.190;4.440;2022-08-01T02:14:39;101786.66;;;20.04;90.58
69318;BME280;56457;52.190;4.440;2022-08-01T02:15:40;101787.66;;;20.02;90.63
69318;BME280;56457;52.190;4.440;2022-08-01T02:16:44;101787.53;;;20.05;90.62
69318;BME280;56457;52.190;4.440;2022-08-01T02:17:48;101786.03;;;19.96;90.51
69318;BME280;56457;52.190;4.440;2022-08-01T02:18:50;101787.16;;;19.89;90.67
69318;BME280;56457;52.190;4.440;2022-08-01T02:19:51;101787.25;;;19.86;90.77
69318;BME280;56457;52.190;4.440;2022-08-01T02:20:52;101784.84;;;19.78;90.88
69318;BME280;56457;52.190;4.440;2022-08-01T02:22:01;101795.41;;;19.81;90.95
69318;BME280;56457;52.190;4.440;2022-08-01T02:23:11;101792.53;;;19.87;90.46
69318;BME280;56457;52.190;4.440;2022-08-01T02:24:31;101790.56;;;19.94;90.32
69318;BME280;56457;52.190;4.440;2022-08-01T02:25:43;101788.75;;;19.95;90.44
69318;BME280;56457;52.190;4.440;2022-08-01T02:26:50;101780.97;;;19.88;90.65
69318;BME280;56457;52.190;4.440;2022-08-01T02:28:13;101781.91;;;19.87;90.24
69318;BME280;56457;52.190;4.440;2022-08-01T02:29:22;101781.66;;;19.94;90.36
69318;BME280;56457;52.190;4.440;2022-08-01T02:30:25;101779.72;;;19.99;90.33
69318;BME280;56457;52.190;4.440;2022-08-01T02:31:27;101776.16;;;20.00;90.22
69318;BME280;56457;52.190;4.440;2022-08-01T02:32:36;101777.75;;;20.05;89.70
69318;BME280;56457;52.190;4.440;2022-08-01T02:33:42;101775.06;;;20.07;89.96
69318;BME280;56457;52.190;4.440;2022-08-01T02:34:46;101780.47;;;20.04;89.47
69318;BME280;56457;52.190;4.440;2022-08-01T02:35:54;101779.47;;;20.08;89.57
69318;BME280;56457;52.190;4.440;2022-08-01T02:36:56;101778.72;;;20.03;89.67
69318;BME280;56457;52.190;4.440;2022-08-01T02:37:58;101773.53;;;19.98;90.08
69318;BME280;56457;52.190;4.440;2022-08-01T02:39:07;101779.72;;;20.00;89.77
69318;BME280;56457;52.190;4.440;2022-08-01T02:40:09;101780.28;;;20.10;89.95
69318;BME280;56457;52.190;4.440;2022-08-01T02:41:18;101779.25;;;20.14;89.47
69318;BME280;56457;52.190;4.440;2022-08-01T02:42:20;101784.47;;;20.17;89.49
69318;BME280;56457;52.190;4.440;2022-08-01T02:43:24;101781.00;;;20.15;89.44
69318;BME280;56457;52.190;4.440;2022-08-01T02:44:30;101787.09;;;20.19;88.92
69318;BME280;56457;52.190;4.440;2022-08-01T02:45:32;101786.25;;;20.16;89.26
69318;BME280;56457;52.190;4.440;2022-08-01T02:46:40;101781.91;;;20.14;89.03
69318;BME280;56457;52.190;4.440;2022-08-01T02:47:43;101790.00;;;20.11;89.44
69318;BME280;56457;52.190;4.440;2022-08-01T02:48:46;101787.50;;;20.06;89.34
69318;BME280;56457;52.190;4.440;2022-08-01T02:49:48;101785.72;;;20.05;89.46
69318;BME280;56457;52.190;4.440;2022-08-01T02:50:52;101787.59;;;20.03;89.55
69318;BME280;56457;52.190;4.440;2022-08-01T02:51:55;101784.78;;;20.08;89.04
69318;BME280;56457;52.190;4.440;2022-08-01T02:52:56;101787.34;;;20.11;89.29
69318;BME280;56457;52.190;4.440;2022-08-01T02:53:58;101785.72;;;20.07;89.20
69318;BME280;56457;52.190;4.440;2022-08-01T02:55:02;101790.13;;;20.08;89.22
69318;BME280;56457;52.190;4.440;2022-08-01T02:56:03;101785.72;;;20.07;89.08
69318;BME280;56457;52.190;4.440;2022-08-01T02:57:05;101792.78;;;20.08;89.63
69318;BME280;56457;52.190;4.440;2022-08-01T02:58:08;101787.34;;;20.11;89.72
69318;BME280;56457;52.190;4.440;2022-08-01T02:59:14;101791.66;;;20.15;89.66
69318;BME280;56457;52.190;4.440;2022-08-01T03:00:16;101790.78;;;20.14;89.17
69318;BME280;56457;52.190;4.440;2022-08-01T03:01:17;101795.97;;;20.19;89.28
69318;BME280;56457;52.190;4.440;2022-08-01T03:02:20;101802.06;;;20.23;88.91
69318;BME280;56457;52.190;4.440;2022-08-01T03:03:22;101803.78;;;20.24;89.07
69318;BME280;56457;52.190;4.440;2022-08-01T03:04:24;101795.84;;;20.22;88.81
69318;BME280;56457;52.190;4.440;2022-08-01T03:05:26;101799.38;;;20.23;89.05
69318;BME280;56457;52.190;4.440;2022-08-01T03:06:28;101794.84;;;20.26;88.80
69318;BME280;56457;52.190;4.440;2022-08-01T03:07:30;101794.63;;;20.32;88.83
69318;BME280;56457;52.190;4.440;2022-08-01T03:08:32;101793.72;;;20.33;88.85
69318;BME280;56457;52.190;4.440;2022-08-01T03:09:39;101798.13;;;20.34;88.79
69318;BME280;56457;52.190;4.440;2022-08-01T03:10:42;101802.50;;;20.35;88.38
69318;BME280;56457;52.190;4.440;2022-08-01T03:11:45;101800.84;;;20.33;88.49
69318;BME280;56457;52.190;4.440;2022-08-01T03:12:48;101798.91;;;20.36;88.79
69318;BME280;56457;52.190;4.440;2022-08-01T03:13:51;101801.44;;;20.41;88.56
69318;BME280;56457;52.190;4.440;2022-08-01T03:14:55;101796.91;;;20.43;88.27
69318;BME280;56457;52.190;4.440;2022-08-01T03:15:57;101803.16;;;20.43;88.28
69318;BME280;56457;52.190;4.440;2022-08-01T03:16:59;101806.72;;;20.42;88.37
69318;BME280;56457;52.190;4.440;2022-08-01T03:18:02;101803.31;;;20.39;88.42
69318;BME280;56457;52.190;4.440;2022-08-01T03:19:04;101799.13;;;20.30;88.48
69318;BME280;56457;52.190;4.440;2022-08-01T03:20:07;101796.53;;;20.29;88.71
69318;BME280;56457;52.190;4.440;2022-08-01T03:21:11;101799.31;;;20.26;88.52
69318;BME280;56457;52.190;4.440;2022-08-01T03:22:13;101800.16;;;20.26;88.63
69318;BME280;56457;52.190;4.440;2022-08-01T03:23:15;101803.59;;;20.30;88.79
69318;BME280;56457;52.190;4.440;2022-08-01T03:24:16;101799.97;;;20.32;88.73
69318;BME280;56457;52.190;4.440;2022-08-01T03:25:18;101798.31;;;20.28;88.70
69318;BME280;56457;52.190;4.440;2022-08-01T03:26:20;101793.84;;;20.29;89.11
69318;BME280;56457;52.190;4.440;2022-08-01T03:27:21;101793.78;;;20.30;89.21
69318;BME280;56457;52.190;4.440;2022-08-01T03:28:23;101797.59;;;20.23;89.09
69318;BME280;56457;52.190;4.440;2022-08-01T03:29:26;101791.53;;;20.18;89.64
69318;BME280;56457;52.190;4.440;2022-08-01T03:30:29;101794.25;;;20.16;89.82
69318;BME280;56457;52.190;4.440;2022-08-01T03:31:30;101790.88;;;20.11;89.50
69318;BME280;56457;52.190;4.440;2022-08-01T03:32:31;101796.25;;;20.10;90.35
69318;BME280;56457;52.190;4.440;2022-08-01T03:33:31;101791.78;;;20.10;90.22
69318;BME280;56457;52.190;4.440;2022-08-01T03:34:32;101794.59;;;20.06;90.08
69318;BME280;56457;52.190;4.440;2022-08-01T03:35:34;101791.03;;;20.07;90.52
69318;BME280;56457;52.190;4.440;2022-08-01T03:36:43;101787.31;;;20.12;90.26
69318;BME280;56457;52.190;4.440;2022-08-01T03:37:47;101795.53;;;20.05;90.10
69318;BME280;56457;52.190;4.440;2022-08-01T03:38:49;101792.13;;;20.00;90.29
69318;BME280;56457;52.190;4.440;2022-08-01T03:40:04;101790.44;;;19.97;90.43
69318;BME280;56457;52.190;4.440;2022-08-01T03:41:12;101800.44;;;19.90;90.31
69318;BME280;56457;52.190;4.440;2022-08-01T03:42:18;101796.84;;;19.92;90.62
69318;BME280;56457;52.190;4.440;2022-08-01T03:43:33;101795.22;;;19.87;90.88
69318;BME280;56457;52.190;4.440;2022-08-01T03:44:38;101798.06;;;19.81;91.44
69318;BME280;56457;52.190;4.440;2022-08-01T03:45:46;101797.94;;;19.84;91.37
69318;BME280;56457;52.190;4.440;2022-08-01T03:46:54;101800.72;;;19.81;91.34
69318;BME280;56457;52.190;4.440;2022-08-01T03:48:00;101793.44;;;19.86;91.20
69318;BME280;56457;52.190;4.440;2022-08-01T03:49:06;101800.63;;;19.84;91.47
69318;BME280;56457;52.190;4.440;2022-08-01T03:50:10;101796.09;;;19.86;91.27
69318;BME280;56457;52.190;4.440;2022-08-01T03:51:12;101797.75;;;19.90;91.26
69318;BME280;56457;52.190;4.440;2022-08-01T03:52:14;101798.44;;;19.97;91.18
69318;BME280;56457;52.190;4.440;2022-08-01T03:53:15;101795.72;;;19.99;91.15
69318;BME280;56457;52.190;4.440;2022-08-01T03:54:21;101796.56;;;20.01;90.76
69318;BME280;56457;52.190;4.440;2022-08-01T03:55:24;101793.03;;;20.00;90.92
69318;BME280;56457;52.190;4.440;2022-08-01T03:56:26;101802.91;;;19.97;91.14
69318;BME280;56457;52.190;4.440;2022-08-01T03:57:28;101799.16;;;20.02;91.16
69318;BME280;56457;52.190;4.440;2022-08-01T03:58:30;101794.50;;;20.09;91.19
69318;BME280;56457;52.190;4.440;2022-08-01T03:59:31;101801.72;;;20.05;91.05
69318;BME280;56457;52.190;4.440;2022-08-01T04:00:36;101796.25;;;20.10;91.04
69318;BME280;56457;52.190;4.440;2022-08-01T04:01:39;101795.50;;;20.06;91.08
69318;BME280;56457;52.190;4.440;2022-08-01T04:02:39;101800.66;;;20.11;90.83
69318;BME280;56457;52.190;4.440;2022-08-01T04:03:40;101792.66;;;20.11;91.12
69318;BME280;56457;52.190;4.440;2022-08-01T04:04:41;101799.72;;;20.12;90.64
69318;BME280;56457;52.190;4.440;2022-08-01T04:05:42;101803.50;;;20.05;91.00
69318;BME280;56457;52.190;4.440;2022-08-01T04:06:42;101798.31;;;20.02;90.65
69318;BME280;56457;52.190;4.440;2022-08-01T04:07:47;101799.38;;;19.96;91.31
69318;BME280;56457;52.190;4.440;2022-08-01T04:08:50;101801.03;;;20.00;91.08
69318;BME280;56457;52.190;4.440;2022-08-01T04:09:57;101785.94;;;19.99;91.55
69318;BME280;56457;52.190;4.440;2022-08-01T04:10:57;101789.31;;;20.04;91.23
69318;BME280;56457;52.190;4.440;2022-08-01T04:11:59;101798.19;;;20.05;91.19
69318;BME280;56457;52.190;4.440;2022-08-01T04:13:00;101795.16;;;19.89;91.53
69318;BME280;56457;52.190;4.440;2022-08-01T04:14:00;101795.47;;;19.78;91.39
69318;BME280;56457;52.190;4.440;2022-08-01T04:15:01;101800.84;;;19.77;92.52
69318;BME280;56457;52.190;4.440;2022-08-01T04:16:01;101801.91;;;19.71;92.61
69318;BME280;56457;52.190;4.440;2022-08-01T04:17:02;101802.09;;;19.65;93.11
69318;BME280;56457;52.190;4.440;2022-08-01T04:18:02;101811.22;;;19.56;93.18
69318;BME280;56457;52.190;4.440;2022-08-01T04:19:04;101801.44;;;19.57;93.57
69318;BME280;56457;52.190;4.440;2022-08-01T04:20:07;101804.97;;;19.57;93.64
69318;BME280;56457;52.190;4.440;2022-08-01T04:21:08;101803.94;;;19.63;93.50
69318;BME280;56457;52.190;4.440;2022-08-01T04:22:11;101804.94;;;19.59;93.39
69318;BME280;56457;52.190;4.440;2022-08-01T04:23:15;101809.78;;;19.45;93.30
69318;BME280;56457;52.190;4.440;2022-08-01T04:24:18;101808.75;;;19.49;93.76
69318;BME280;56457;52.190;4.440;2022-08-01T04:25:29;101809.50;;;19.54;93.57
69318;BME280;56457;52.190;4.440;2022-08-01T04:26:35;101810.16;;;19.62;93.22
69318;BME280;56457;52.190;4.440;2022-08-01T04:27:38;101804.81;;;19.63;93.30
69318;BME280;56457;52.190;4.440;2022-08-01T04:28:41;101807.28;;;19.70;93.05
69318;BME280;56457;52.190;4.440;2022-08-01T04:29:43;101809.09;;;19.68;93.12
69318;BME280;56457;52.190;4.440;2022-08-01T04:30:46;101799.94;;;19.78;92.64
69318;BME280;56457;52.190;4.440;2022-08-01T04:31:50;101807.81;;;19.81;92.92
69318;BME280;56457;52.190;4.440;2022-08-01T04:32:55;101811.41;;;19.80;92.48
69318;BME280;56457;52.190;4.440;2022-08-01T04:33:58;101813.31;;;19.76;92.69
69318;BME280;56457;52.190;4.440;2022-08-01T04:35:03;101812.38;;;19.77;92.69
69318;BME280;56457;52.190;4.440;2022-08-01T04:36:06;101810.63;;;19.76;92.60
69318;BME280;56457;52.190;4.440;2022-08-01T04:37:09;101812.44;;;19.76;92.91
69318;BME280;56457;52.190;4.440;2022-08-01T04:38:12;101811.47;;;19.78;93.06
69318;BME280;56457;52.190;4.440;2022-08-01T04:39:15;101812.94;;;19.87;93.03
69318;BME280;56457;52.190;4.440;2022-08-01T04:40:17;101824.34;;;19.92;92.89
69318;BME280;56457;52.190;4.440;2022-08-01T04:41:18;101820.75;;;19.93;92.82
69318;BME280;56457;52.190;4.440;2022-08-01T04:42:19;101815.66;;;19.85;93.03
69318;BME280;56457;52.190;4.440;2022-08-01T04:43:19;101823.84;;;19.79;93.21
69318;BME280;56457;52.190;4.440;2022-08-01T04:44:20;101821.06;;;19.84;93.44
69318;BME280;56457;52.190;4.440;2022-08-01T04:45:21;101825.19;;;19.94;93.32
69318;BME280;56457;52.190;4.440;2022-08-01T04:46:23;101829.59;;;19.95;93.28
69318;BME280;56457;52.190;4.440;2022-08-01T04:47:25;101826.00;;;19.96;93.31
69318;BME280;56457;52.190;4.440;2022-08-01T04:48:26;101829.84;;;19.86;93.03
69318;BME280;56457;52.190;4.440;2022-08-01T04:49:26;101832.31;;;19.92;93.23
69318;BME280;56457;52.190;4.440;2022-08-01T04:50:27;101825.41;;;19.86;93.13
69318;BME280;56457;52.190;4.440;2022-08-01T04:51:28;101832.13;;;19.70;93.39
69318;BME280;56457;52.190;4.440;2022-08-01T04:52:33;101850.06;;;19.63;93.70
69318;BME280;56457;52.190;4.440;2022-08-01T04:53:33;101832.06;;;19.72;93.83
69318;BME280;56457;52.190;4.440;2022-08-01T04:54:35;101835.91;;;19.63;93.50
69318;BME280;56457;52.190;4.440;2022-08-01T04:55:38;101845.69;;;19.61;93.76
69318;BME280;56457;52.190;4.440;2022-08-01T04:56:38;101842.84;;;19.67;93.92
69318;BME280;56457;52.190;4.440;2022-08-01T04:57:41;101839.78;;;19.50;93.46
69318;BME280;56457;52.190;4.440;2022-08-01T04:58:43;101839.81;;;19.48;94.04
69318;BME280;56457;52.190;4.440;2022-08-01T04:59:43;101844.19;;;19.51;94.02
69318;BME280;56457;52.190;4.440;2022-08-01T05:00:45;101834.56;;;19.47;94.22
69318;BME280;56457;52.190;4.440;2022-08-01T05:01:49;101836.25;;;19.49;94.36
69318;BME280;56457;52.190;4.440;2022-08-01T05:02:50;101832.69;;;19.50;94.36
69318;BME280;56457;52.190;4.440;2022-08-01T05:03:50;101837.91;;;19.53;94.30
69318;BME280;56457;52.190;4.440;2022-08-01T05:04:51;101838.69;;;19.58;94.13
69318;BME280;56457;52.190;4.440;2022-08-01T05:05:51;101844.56;;;19.70;94.16
69318;BME280;56457;52.190;4.440;2022-08-01T05:06:51;101844.47;;;19.73;93.72
69318;BME280;56457;52.190;4.440;2022-08-01T05:07:52;101848.91;;;19.72;93.77
69318;BME280;56457;52.190;4.440;2022-08-01T05:08:52;101837.53;;;19.67;93.98
69318;BME280;56457;52.190;4.440;2022-08-01T05:09:53;101853.78;;;19.58;93.96
69318;BME280;56457;52.190;4.440;2022-08-01T05:10:53;101848.34;;;19.61;93.88
69318;BME280;56457;52.190;4.440;2022-08-01T05:11:54;101842.66;;;19.73;93.73
69318;BME280;56457;52.190;4.440;2022-08-01T05:12:54;101838.06;;;19.78;93.54
69318;BME280;56457;52.190;4.440;2022-08-01T05:13:55;101839.75;;;19.81;93.42
69318;BME280;56457;52.190;4.440;2022-08-01T05:14:55;101842.34;;;19.84;93.25
69318;BME280;56457;52.190;4.440;2022-08-01T05:15:55;101844.22;;;19.80;92.97
69318;BME280;56457;52.190;4.440;2022-08-01T05:16:56;101839.69;;;19.84;93.13
69318;BME280;56457;52.190;4.440;2022-08-01T05:17:56;101840.66;;;19.81;92.63
69318;BME280;56457;52.190;4.440;2022-08-01T05:18:57;101843.41;;;19.78;92.88
69318;BME280;56457;52.190;4.440;2022-08-01T05:19:57;101837.09;;;19.81;92.55
69318;BME280;56457;52.190;4.440;2022-08-01T05:20:58;101840.97;;;19.71;92.93
69318;BME280;56457;52.190;4.440;2022-08-01T05:21:59;101843.53;;;19.74;93.26
69318;BME280;56457;52.190;4.440;2022-08-01T05:23:00;101846.19;;;19.75;93.10
69318;BME280;56457;52.190;4.440;2022-08-01T05:24:01;101841.72;;;19.76;93.21
69318;BME280;56457;52.190;4.440;2022-08-01T05:25:02;101834.41;;;19.82;93.08
69318;BME280;56457;52.190;4.440;2022-08-01T05:26:04;101841.19;;;19.93;92.93
69318;BME280;56457;52.190;4.440;2022-08-01T05:27:05;101841.06;;;19.97;92.65
69318;BME280;56457;52.190;4.440;2022-08-01T05:28:07;101838.31;;;20.00;92.68
69318;BME280;56457;52.190;4.440;2022-08-01T05:29:08;101840.91;;;20.02;92.68
69318;BME280;56457;52.190;4.440;2022-08-01T05:30:09;101842.97;;;19.92;92.01
69318;BME280;56457;52.190;4.440;2022-08-01T05:31:09;101847.00;;;19.77;92.35
69318;BME280;56457;52.190;4.440;2022-08-01T05:32:10;101853.78;;;19.87;92.28
69318;BME280;56457;52.190;4.440;2022-08-01T05:33:10;101848.25;;;19.94;92.23
69318;BME280;56457;52.190;4.440;2022-08-01T05:34:11;101849.72;;;20.04;92.00
69318;BME280;56457;52.190;4.440;2022-08-01T05:35:11;101856.66;;;20.09;92.40